createdAt,value
2016-09-25T00:00:38.080Z,15.51
2016-09-25T00:01:48.376Z,15.47
2016-09-25T00:02:58.380Z,15.45
2016-09-25T00:04:08.682Z,15.52
2016-09-25T00:05:18.654Z,15.47
2016-09-25T00:06:28.941Z,15.45
2016-09-25T00:07:38.928Z,15.31
2016-09-25T00:08:48.914Z,15.31
2016-09-25T00:09:59.193Z,15.33
2016-09-25T00:11:09.483Z,15.27
2016-09-25T00:12:19.760Z,15.22
2016-09-25T00:13:30.036Z,15.2
2016-09-25T00:14:40.343Z,15.23
2016-09-25T00:15:50.640Z,15.18
2016-09-25T00:17:00.929Z,15.2
2016-09-25T00:18:11.219Z,15.1
2016-09-25T00:19:21.566Z,15.13
2016-09-25T00:20:31.539Z,15.08
2016-09-25T00:21:41.515Z,15.04
2016-09-25T00:22:51.817Z,15.08
2016-09-25T00:24:02.084Z,15.01
2016-09-25T00:25:12.377Z,15.01
2016-09-25T00:26:22.666Z,15
2016-09-25T00:27:33.033Z,14.87
2016-09-25T00:28:43.050Z,14.95
2016-09-25T00:29:53.035Z,14.89
2016-09-25T00:31:02.721Z,14.94
2016-09-25T00:32:12.999Z,14.95
2016-09-25T00:33:22.970Z,14.9
2016-09-25T00:34:33.255Z,14.9
2016-09-25T00:35:43.550Z,14.89
2016-09-25T00:36:53.850Z,14.77
2016-09-25T00:38:03.518Z,14.8
2016-09-25T00:39:13.828Z,14.77
2016-09-25T00:40:24.120Z,14.7
2016-09-25T00:41:34.398Z,14.75
2016-09-25T00:42:44.050Z,14.75
2016-09-25T00:43:54.335Z,14.7
2016-09-25T00:45:04.628Z,14.67
2016-09-25T00:46:14.924Z,14.69
2016-09-25T00:47:24.666Z,14.64
2016-09-25T00:48:34.330Z,14.63
2016-09-25T00:49:44.613Z,14.64
2016-09-25T00:50:54.906Z,14.6
2016-09-25T00:52:04.888Z,14.56
2016-09-25T00:53:15.191Z,14.57
2016-09-25T00:54:25.191Z,14.57
2016-09-25T00:55:35.208Z,14.59
2016-09-25T00:56:45.191Z,14.6
2016-09-25T00:57:55.481Z,14.56
2016-09-25T00:59:05.497Z,14.59
2016-09-25T01:00:15.806Z,14.74
2016-09-25T01:01:26.110Z,14.63
2016-09-25T01:02:36.098Z,14.67
2016-09-25T01:03:46.393Z,14.64
2016-09-25T01:04:56.688Z,14.63
2016-09-25T01:06:06.984Z,14.67
2016-09-25T01:07:17.272Z,14.57
2016-09-25T01:08:27.575Z,14.74
2016-09-25T01:09:37.874Z,14.7
2016-09-25T01:10:47.539Z,14.59
2016-09-25T01:11:57.519Z,14.69
2016-09-25T01:13:07.493Z,14.59
2016-09-25T01:14:17.472Z,14.56
2016-09-25T01:15:27.157Z,14.53
2016-09-25T01:16:37.129Z,14.51
2016-09-25T01:17:47.411Z,14.56
2016-09-25T01:18:57.680Z,14.59
2016-09-25T01:20:07.973Z,14.51
2016-09-25T01:21:18.268Z,14.49
2016-09-25T01:22:28.564Z,14.52
2016-09-25T01:23:38.544Z,14.56
2016-09-25T01:24:48.823Z,14.44
2016-09-25T01:25:58.790Z,14.49
2016-09-25T01:27:09.099Z,14.49
2016-09-25T01:28:19.383Z,14.44
2016-09-25T01:29:29.377Z,14.42
2016-09-25T01:30:39.656Z,14.38
2016-09-25T01:31:49.639Z,14.42
2016-09-25T01:32:59.345Z,14.28
2016-09-25T01:34:09.007Z,14.27
2016-09-25T01:35:19.295Z,14.27
2016-09-25T01:36:29.586Z,14.21
2016-09-25T01:37:40.088Z,14.21
2016-09-25T01:38:50.057Z,14.19
2016-09-25T01:40:00.346Z,14.15
2016-09-25T01:41:10.336Z,14.11
2016-09-25T01:42:19.703Z,14.06
2016-09-25T01:43:29.980Z,14.06
2016-09-25T01:44:40.257Z,14.11
2016-09-25T01:45:49.922Z,14.06
2016-09-25T01:47:00.230Z,14.09
2016-09-25T01:48:10.507Z,14.08
2016-09-25T01:49:20.801Z,14.01
2016-09-25T01:50:31.100Z,14.06
2016-09-25T01:51:41.402Z,14.02
2016-09-25T01:52:51.688Z,14.06
2016-09-25T01:54:01.974Z,14.08
2016-09-25T01:55:12.266Z,14.03
2016-09-25T01:56:22.567Z,14.06
2016-09-25T01:57:32.230Z,14.05
2016-09-25T01:58:42.719Z,14.05
2016-09-25T01:59:52.700Z,14.08
2016-09-25T02:01:02.979Z,14.09
2016-09-25T02:02:13.267Z,14.15
2016-09-25T02:03:23.238Z,14.13
2016-09-25T02:04:32.909Z,14.08
2016-09-25T02:05:43.201Z,14.06
2016-09-25T02:06:53.493Z,14.15
2016-09-25T02:08:03.476Z,14.03
2016-09-25T02:09:13.761Z,14.01
2016-09-25T02:10:24.058Z,13.94
2016-09-25T02:11:34.033Z,13.94
2016-09-25T02:12:44.307Z,13.97
2016-09-25T02:13:54.603Z,13.93
2016-09-25T02:15:04.914Z,13.93
2016-09-25T02:16:15.208Z,13.9
2016-09-25T02:17:25.500Z,13.95
2016-09-25T02:18:35.787Z,13.9
2016-09-25T02:19:45.763Z,13.94
2016-09-25T02:20:56.044Z,13.88
2016-09-25T02:22:06.025Z,13.93
2016-09-25T02:23:16.007Z,13.93
2016-09-25T02:24:26.298Z,13.88
2016-09-25T02:25:36.266Z,13.87
2016-09-25T02:26:46.552Z,13.93
2016-09-25T02:27:56.833Z,13.93
2016-09-25T02:29:06.807Z,13.88
2016-09-25T02:30:16.789Z,13.88
2016-09-25T02:31:26.764Z,13.91
2016-09-25T02:32:37.046Z,13.83
2016-09-25T02:33:47.316Z,13.93
2016-09-25T02:34:57.279Z,13.9
2016-09-25T02:36:06.950Z,13.9
2016-09-25T02:37:17.253Z,13.93
2016-09-25T02:38:27.555Z,13.84
2016-09-25T02:39:37.832Z,13.86
2016-09-25T02:40:48.107Z,13.84
2016-09-25T02:41:58.082Z,13.91
2016-09-25T02:43:07.750Z,13.83
2016-09-25T02:44:18.029Z,13.87
2016-09-25T02:45:28.003Z,13.84
2016-09-25T02:46:38.275Z,13.79
2016-09-25T02:47:48.563Z,13.84
2016-09-25T02:48:58.840Z,13.86
2016-09-25T02:50:09.160Z,13.79
2016-09-25T02:51:19.128Z,13.83
2016-09-25T02:52:29.409Z,13.81
2016-09-25T02:53:39.692Z,13.81
2016-09-25T02:54:49.371Z,13.87
2016-09-25T02:55:59.663Z,13.76
2016-09-25T02:57:09.647Z,13.7
2016-09-25T02:58:19.933Z,13.66
2016-09-25T02:59:30.221Z,13.63
2016-09-25T03:00:40.501Z,13.58
2016-09-25T03:32:47.379Z,10.08
2016-09-25T03:33:57.654Z,9.98
2016-09-25T03:35:07.976Z,10.02
2016-09-25T03:36:18.268Z,10.11
2016-09-25T03:37:28.555Z,10.18
2016-09-25T03:38:38.851Z,10.31
2016-09-25T03:39:49.135Z,10.42
2016-09-25T03:40:59.437Z,10.46
2016-09-25T03:42:09.416Z,10.72
2016-09-25T03:43:19.693Z,10.88
2016-09-25T03:44:29.971Z,10.95
2016-09-25T03:45:40.270Z,11.13
2016-09-25T03:46:50.558Z,11.23
2016-09-25T03:48:00.829Z,11.38
2016-09-25T03:49:11.125Z,11.45
2016-09-25T03:50:20.783Z,11.64
2016-09-25T03:51:31.055Z,11.81
2016-09-25T03:52:41.051Z,11.91
2016-09-25T03:53:51.330Z,12.04
2016-09-25T03:55:01.625Z,12.13
2016-09-25T03:56:11.916Z,12.23
2016-09-25T03:57:21.899Z,12.33
2016-09-25T03:58:32.207Z,12.51
2016-09-25T03:59:42.186Z,12.43
2016-09-25T04:00:52.473Z,12.58
2016-09-25T04:02:02.773Z,12.59
2016-09-25T04:03:12.448Z,12.65
2016-09-25T04:04:22.746Z,12.71
2016-09-25T04:05:33.039Z,12.66
2016-09-25T04:06:43.321Z,12.81
2016-09-25T04:07:53.607Z,12.91
2016-09-25T04:09:03.902Z,12.81
2016-09-25T04:10:14.197Z,12.88
2016-09-25T04:11:24.178Z,13.01
2016-09-25T04:12:33.858Z,13.01
2016-09-25T04:13:44.151Z,13.11
2016-09-25T04:14:54.127Z,13.07
2016-09-25T04:16:03.789Z,13.13
2016-09-25T04:17:14.080Z,13.16
2016-09-25T04:18:24.370Z,13.2
2016-09-25T04:19:34.348Z,13.28
2016-09-25T04:20:44.326Z,13.28
2016-09-25T04:21:54.643Z,13.37
2016-09-25T04:23:04.933Z,13.29
2016-09-25T04:24:14.919Z,13.42
2016-09-25T04:25:24.603Z,13.32
2016-09-25T04:26:34.902Z,13.42
2016-09-25T04:27:45.187Z,13.39
2016-09-25T04:28:55.489Z,13.45
2016-09-25T04:30:05.779Z,13.45
2016-09-25T04:31:15.761Z,13.51
2016-09-25T04:32:26.048Z,13.45
2016-09-25T04:33:36.051Z,13.5
2016-09-25T04:34:46.336Z,13.53
2016-09-25T04:35:55.703Z,13.53
2016-09-25T04:37:06.015Z,13.54
2016-09-25T04:38:16.302Z,13.54
2016-09-25T04:39:26.604Z,13.57
2016-09-25T04:40:36.881Z,13.6
2016-09-25T04:41:47.168Z,13.53
2016-09-25T04:42:57.152Z,13.51
2016-09-25T04:44:07.450Z,13.65
2016-09-25T04:45:17.432Z,13.63
2016-09-25T04:46:27.709Z,13.62
2016-09-25T04:47:38.000Z,13.55
2016-09-25T04:48:48.283Z,13.57
2016-09-25T04:49:58.569Z,13.58
2016-09-25T04:51:08.540Z,13.68
2016-09-25T04:52:18.509Z,13.69
2016-09-25T04:53:28.791Z,13.62
2016-09-25T04:54:38.776Z,13.66
2016-09-25T04:55:49.057Z,13.58
2016-09-25T04:56:59.353Z,13.66
2016-09-25T04:58:09.371Z,13.65
2016-09-25T04:59:19.045Z,13.69
2016-09-25T05:00:29.013Z,13.75
2016-09-25T05:01:38.687Z,13.72
2016-09-25T05:02:48.653Z,13.79
2016-09-25T05:03:59.180Z,13.83
2016-09-25T05:05:09.476Z,13.9
2016-09-25T05:06:19.774Z,13.84
2016-09-25T05:07:30.049Z,13.93
2016-09-25T05:08:40.341Z,13.94
2016-09-25T05:09:50.657Z,13.95
2016-09-25T05:11:00.640Z,13.94
2016-09-25T05:12:10.653Z,14.08
2016-09-25T05:13:20.320Z,14.11
2016-09-25T05:14:29.679Z,14.11
2016-09-25T05:15:39.042Z,14.13
2016-09-25T05:16:49.339Z,14.21
2016-09-25T05:17:59.617Z,14.23
2016-09-25T05:19:09.596Z,14.28
2016-09-25T05:20:19.891Z,14.36
2016-09-25T05:21:29.559Z,14.28
2016-09-25T05:22:39.837Z,14.42
2016-09-25T05:23:49.811Z,14.33
2016-09-25T05:24:59.785Z,14.3
2016-09-25T05:26:09.444Z,14.41
2016-09-25T05:27:19.730Z,14.46
2016-09-25T05:28:29.705Z,14.48
2016-09-25T05:29:40.007Z,14.46
2016-09-25T05:30:50.302Z,14.59
2016-09-25T05:32:00.581Z,14.56
2016-09-25T05:33:10.884Z,14.63
2016-09-25T05:34:21.194Z,14.69
2016-09-25T05:35:31.496Z,14.77
2016-09-25T05:36:41.476Z,14.71
2016-09-25T05:37:51.753Z,14.86
2016-09-25T05:39:02.031Z,14.87
2016-09-25T05:40:11.699Z,15.02
2016-09-25T05:41:21.983Z,15.04
2016-09-25T05:42:31.967Z,15.02
2016-09-25T05:43:41.955Z,15.13
2016-09-25T05:44:52.269Z,15.13
2016-09-25T05:46:02.571Z,15.27
2016-09-25T05:47:12.866Z,15.27
2016-09-25T05:48:22.845Z,15.26
2016-09-25T05:49:33.117Z,15.38
2016-09-25T05:50:43.432Z,15.44
2016-09-25T05:51:53.422Z,15.49
2016-09-25T05:53:03.392Z,15.4
2016-09-25T05:54:13.358Z,15.6
2016-09-25T05:55:23.345Z,15.55
2016-09-25T05:56:32.709Z,15.65
2016-09-25T05:57:43.018Z,15.71
2016-09-25T05:58:53.290Z,15.73
2016-09-25T06:00:03.582Z,15.83
2016-09-25T06:01:13.868Z,15.88
2016-09-25T06:02:24.176Z,15.83
2016-09-25T06:03:34.163Z,15.95
2016-09-25T06:04:44.159Z,15.98
2016-09-25T06:05:54.454Z,16.07
2016-09-25T06:07:04.433Z,16.04
2016-09-25T06:08:14.733Z,16.11
2016-09-25T06:09:24.116Z,16.18
2016-09-25T06:10:34.411Z,16.26
2016-09-25T06:11:44.419Z,16.37
2016-09-25T06:12:54.711Z,16.4
2016-09-25T06:14:05.002Z,16.34
2016-09-25T06:15:15.284Z,16.44
2016-09-25T06:16:25.290Z,16.47
2016-09-25T06:17:35.574Z,16.51
2016-09-25T06:18:45.850Z,16.58
2016-09-25T06:19:56.130Z,16.72
2016-09-25T06:21:06.117Z,16.72
2016-09-25T06:22:16.414Z,16.76
2016-09-25T06:23:26.380Z,16.87
2016-09-25T06:24:36.347Z,16.91
2016-09-25T06:25:46.655Z,16.97
2016-09-25T06:26:56.634Z,17.05
2016-09-25T06:28:06.926Z,17.1
2016-09-25T06:29:17.234Z,17.12
2016-09-25T06:30:27.224Z,17.22
2016-09-25T06:31:37.513Z,17.22
2016-09-25T06:32:47.795Z,17.3
2016-09-25T06:33:57.805Z,17.49
2016-09-25T06:35:07.482Z,17.43
2016-09-25T06:36:17.778Z,17.54
2016-09-25T06:37:28.096Z,17.52
2016-09-25T06:38:38.382Z,17.71
2016-09-25T06:39:48.684Z,17.65
2016-09-25T06:40:58.979Z,17.8
2016-09-25T06:42:09.273Z,17.92
2016-09-25T06:43:19.550Z,17.96
2016-09-25T06:44:29.846Z,17.98
2016-09-25T06:45:39.530Z,18.02
2016-09-25T06:46:49.836Z,18.11
2016-09-25T06:48:00.131Z,18.2
2016-09-25T06:49:10.419Z,18.21
2016-09-25T06:50:20.707Z,18.24
2016-09-25T06:51:30.996Z,18.16
2016-09-25T06:52:41.287Z,18.27
2016-09-25T06:53:51.571Z,18.38
2016-09-25T06:55:01.852Z,18.42
2016-09-25T06:56:12.169Z,18.47
2016-09-25T06:57:22.145Z,18.45
2016-09-25T06:58:32.431Z,18.49
2016-09-25T06:59:42.409Z,18.6
2016-09-25T07:00:52.702Z,18.66
2016-09-25T07:02:02.687Z,18.74
2016-09-25T07:03:12.990Z,18.75
2016-09-25T07:04:22.662Z,18.82
2016-09-25T07:05:32.637Z,18.81
2016-09-25T07:06:42.921Z,18.87
2016-09-25T07:07:53.232Z,18.9
2016-09-25T07:09:03.214Z,18.99
2016-09-25T07:10:13.519Z,19.05
2016-09-25T07:11:23.495Z,19.12
2016-09-25T07:12:33.483Z,19.19
2016-09-25T07:13:43.789Z,19.23
2016-09-25T07:14:54.068Z,19.32
2016-09-25T07:16:04.058Z,19.31
2016-09-25T07:17:14.345Z,19.4
2016-09-25T07:18:24.637Z,19.49
2016-09-25T07:19:34.614Z,19.53
2016-09-25T07:20:44.904Z,19.53
2016-09-25T07:21:55.196Z,19.55
2016-09-25T07:23:05.190Z,19.64
2016-09-25T07:24:14.861Z,19.57
2016-09-25T07:25:24.838Z,19.72
2016-09-25T07:26:35.138Z,19.78
2016-09-25T07:27:45.126Z,19.9
2016-09-25T07:28:55.413Z,19.98
2016-09-25T07:30:05.404Z,20.01
2016-09-25T07:31:15.398Z,20.01
2016-09-25T07:32:25.406Z,20.1
2016-09-25T07:33:35.700Z,20.16
2016-09-25T07:34:45.987Z,20.27
2016-09-25T07:35:56.277Z,20.35
2016-09-25T07:37:06.569Z,20.46
2016-09-25T07:38:16.871Z,20.54
2016-09-25T07:39:27.153Z,20.46
2016-09-25T07:40:37.135Z,20.58
2016-09-25T07:41:47.416Z,20.66
2016-09-25T07:42:57.383Z,20.75
2016-09-25T07:44:07.679Z,20.67
2016-09-25T07:45:17.981Z,20.79
2016-09-25T07:46:27.968Z,20.83
2016-09-25T07:47:38.259Z,20.75
2016-09-25T07:48:48.542Z,20.91
2016-09-25T07:49:58.823Z,20.94
2016-09-25T07:51:09.113Z,21.09
2016-09-25T07:52:19.403Z,21.16
2016-09-25T07:53:29.382Z,21.18
2016-09-25T07:54:39.669Z,21.31
2016-09-25T07:55:49.952Z,21.48
2016-09-25T07:56:59.634Z,21.51
2016-09-25T07:58:09.919Z,21.53
2016-09-25T07:59:20.207Z,21.58
2016-09-25T08:00:30.544Z,21.61
2016-09-25T08:01:40.545Z,21.68
2016-09-25T08:02:50.848Z,21.76
2016-09-25T08:04:01.129Z,21.82
2016-09-25T08:05:11.124Z,21.76
2016-09-25T08:06:21.430Z,21.77
2016-09-25T08:07:31.104Z,21.82
2016-09-25T08:08:41.109Z,21.94
2016-09-25T08:09:51.116Z,22.09
2016-09-25T08:11:01.416Z,22.23
2016-09-25T08:12:11.722Z,22.26
2016-09-25T08:13:22.036Z,22.31
2016-09-25T08:14:32.018Z,22.34
2016-09-25T08:15:42.015Z,22.41
2016-09-25T08:16:52.337Z,22.48
2016-09-25T08:18:02.316Z,22.51
2016-09-25T08:19:12.632Z,22.57
2016-09-25T08:20:22.631Z,22.7
2016-09-25T08:21:32.918Z,22.7
2016-09-25T08:22:43.241Z,22.75
2016-09-25T08:23:53.221Z,22.86
2016-09-25T08:25:03.519Z,22.92
2016-09-25T08:26:13.845Z,22.99
2016-09-25T08:27:23.827Z,23.01
2016-09-25T08:28:33.820Z,22.97
2016-09-25T08:29:44.118Z,23
2016-09-25T08:30:54.417Z,23.1
2016-09-25T08:32:04.425Z,23.19
2016-09-25T08:33:14.745Z,23.18
2016-09-25T08:34:25.054Z,23.32
2016-09-25T08:35:35.065Z,23.26
2016-09-25T08:36:45.375Z,23.29
2016-09-25T08:37:55.692Z,23.38
2016-09-25T08:39:06.010Z,23.37
2016-09-25T08:40:15.996Z,23.35
2016-09-25T08:41:26.009Z,23.35
2016-09-25T08:42:36.588Z,23.35
2016-09-25T08:43:46.910Z,23.47
2016-09-25T08:44:57.303Z,23.59
2016-09-25T08:46:07.601Z,23.6
2016-09-25T08:47:17.899Z,23.57
2016-09-25T08:48:28.213Z,23.59
2016-09-25T08:49:38.519Z,23.57
2016-09-25T08:50:48.526Z,23.59
2016-09-25T08:51:58.837Z,23.63
2016-09-25T08:53:09.139Z,23.67
2016-09-25T08:54:19.286Z,23.77
2016-09-25T08:55:29.604Z,23.78
2016-09-25T08:56:39.922Z,23.85
2016-09-25T08:57:50.236Z,23.97
2016-09-25T08:59:00.566Z,23.97
2016-09-25T09:00:10.871Z,24.08
2016-09-25T09:01:21.238Z,24.17
2016-09-25T09:02:31.565Z,24.18
2016-09-25T09:03:41.907Z,24.26
2016-09-25T09:04:51.906Z,24.32
2016-09-25T09:06:02.223Z,24.32
2016-09-25T09:07:12.252Z,24.39
2016-09-25T09:08:22.545Z,24.48
2016-09-25T09:09:32.563Z,24.61
2016-09-25T09:10:42.866Z,24.75
2016-09-25T09:11:53.214Z,24.77
2016-09-25T09:13:03.537Z,24.69
2016-09-25T09:14:13.846Z,24.67
2016-09-25T09:15:24.158Z,24.63
2016-09-25T09:16:34.134Z,24.58
2016-09-25T09:17:43.822Z,24.55
2016-09-25T09:18:54.114Z,24.55
2016-09-25T09:20:04.434Z,24.69
2016-09-25T09:21:13.812Z,24.67
2016-09-25T09:22:24.107Z,24.71
2016-09-25T09:23:34.105Z,24.7
2016-09-25T09:24:44.649Z,24.77
2016-09-25T09:25:54.958Z,24.75
2016-09-25T09:27:05.269Z,24.78
2016-09-25T09:28:15.256Z,24.86
2016-09-25T09:29:25.263Z,24.93
2016-09-25T09:30:35.575Z,24.94
2016-09-25T09:31:45.886Z,25.07
2016-09-25T09:32:56.194Z,25
2016-09-25T09:34:06.503Z,25.14
2016-09-25T09:35:16.816Z,25.12
2016-09-25T09:36:27.111Z,25.09
2016-09-25T09:37:37.416Z,25.17
2016-09-25T09:38:47.733Z,25.26
2016-09-25T09:39:57.744Z,25.27
2016-09-25T09:41:08.051Z,25.49
2016-09-25T09:42:17.755Z,25.54
2016-09-25T09:43:28.073Z,25.56
2016-09-25T09:44:38.076Z,25.6
2016-09-25T09:45:48.397Z,25.74
2016-09-25T09:46:58.711Z,25.67
2016-09-25T09:48:09.016Z,25.84
2016-09-25T09:49:19.016Z,25.85
2016-09-25T09:50:29.009Z,25.96
2016-09-25T09:51:39.335Z,25.97
2016-09-25T09:52:49.674Z,26.03
2016-09-25T09:53:59.975Z,26.15
2016-09-25T09:55:10.275Z,26.12
2016-09-25T09:56:20.261Z,26.15
2016-09-25T09:57:30.587Z,25.97
2016-09-25T09:58:40.586Z,25.97
2016-09-25T09:59:50.572Z,26
2016-09-25T10:01:00.882Z,26.07
2016-09-25T10:02:11.187Z,26.11
2016-09-25T10:03:21.189Z,26.15
2016-09-25T10:04:31.504Z,26.15
2016-09-25T10:05:41.810Z,26.15
2016-09-25T10:06:52.108Z,26.16
2016-09-25T10:08:02.525Z,26.17
2016-09-25T10:09:12.833Z,26.19
2016-09-25T10:10:23.148Z,26.15
2016-09-25T10:11:33.475Z,26.24
2016-09-25T10:12:43.476Z,26.32
2016-09-25T10:13:53.796Z,26.32
2016-09-25T10:15:04.102Z,26.34
2016-09-25T10:16:14.101Z,26.38
2016-09-25T10:17:24.399Z,26.42
2016-09-25T10:18:34.720Z,26.49
2016-09-25T10:19:44.757Z,26.53
2016-09-25T10:20:55.074Z,26.67
2016-09-25T10:22:04.757Z,26.61
2016-09-25T10:23:15.104Z,26.6
2016-09-25T10:24:25.108Z,26.61
2016-09-25T10:25:35.107Z,26.59
2016-09-25T10:26:45.104Z,26.67
2016-09-25T10:27:55.428Z,26.76
2016-09-25T10:29:05.105Z,26.78
2016-09-25T10:30:15.419Z,26.76
2016-09-25T10:31:25.760Z,26.72
2016-09-25T10:32:36.075Z,26.68
2016-09-25T10:33:46.381Z,26.67
2016-09-25T10:34:56.682Z,26.67
2016-09-25T10:36:06.990Z,26.72
2016-09-25T10:37:17.196Z,26.78
2016-09-25T10:38:27.498Z,26.89
2016-09-25T10:39:37.801Z,26.93
2016-09-25T10:40:48.087Z,26.89
2016-09-25T10:41:58.173Z,26.94
2016-09-25T10:43:08.540Z,26.9
2016-09-25T10:44:18.833Z,27
2016-09-25T10:45:28.852Z,27.04
2016-09-25T10:46:39.173Z,26.93
2016-09-25T10:47:49.472Z,26.89
2016-09-25T10:48:59.481Z,26.96
2016-09-25T10:50:09.777Z,27.13
2016-09-25T10:51:20.066Z,27.21
2016-09-25T10:52:30.378Z,27.37
2016-09-25T10:53:40.680Z,27.33
2016-09-25T10:54:50.657Z,27.28
2016-09-25T10:56:00.654Z,27.3
2016-09-25T10:57:10.632Z,27.3
2016-09-25T10:58:20.612Z,27.31
2016-09-25T10:59:30.608Z,27.31
2016-09-25T11:00:40.606Z,27.33
2016-09-25T11:01:50.587Z,27.34
2016-09-25T11:03:00.889Z,27.33
2016-09-25T11:04:11.166Z,27.49
2016-09-25T11:05:21.501Z,27.62
2016-09-25T11:06:31.824Z,27.64
2016-09-25T11:07:42.101Z,27.68
2016-09-25T11:08:52.383Z,27.87
2016-09-25T11:10:02.689Z,27.91
2016-09-25T11:11:12.993Z,27.98
2016-09-25T11:12:22.987Z,28.01
2016-09-25T11:13:32.995Z,27.98
2016-09-25T11:14:43.290Z,27.87
2016-09-25T11:15:53.607Z,27.91
2016-09-25T11:17:03.617Z,27.94
2016-09-25T11:18:13.603Z,28.02
2016-09-25T11:19:23.594Z,28.01
2016-09-25T11:20:33.905Z,28.03
2016-09-25T11:21:44.210Z,28.05
2016-09-25T11:22:54.512Z,28.09
2016-09-25T11:24:04.489Z,28.11
2016-09-25T11:25:14.807Z,28.17
2016-09-25T11:26:25.103Z,28.2
2016-09-25T11:27:35.089Z,28.17
2016-09-25T11:28:45.402Z,28.31
2016-09-25T11:29:55.935Z,28.31
2016-09-25T11:31:06.236Z,28.45
2016-09-25T11:32:16.539Z,28.46
2016-09-25T11:33:26.839Z,28.57
2016-09-25T11:34:36.525Z,28.54
2016-09-25T11:35:46.831Z,28.57
2016-09-25T11:36:56.523Z,28.51
2016-09-25T11:38:06.807Z,28.49
2016-09-25T11:39:17.108Z,28.49
2016-09-25T11:40:27.084Z,28.14
2016-09-25T11:41:37.405Z,28.17
2016-09-25T11:42:47.708Z,28.12
2016-09-25T11:43:58.027Z,28.21
2016-09-25T11:45:08.332Z,28.41
2016-09-25T11:46:18.614Z,28.54
2016-09-25T11:47:28.923Z,28.65
2016-09-25T11:48:39.228Z,28.68
2016-09-25T11:49:49.528Z,28.82
2016-09-25T11:50:59.524Z,29.05
2016-09-25T11:52:09.832Z,29.14
2016-09-25T11:53:20.132Z,29.23
2016-09-25T11:54:30.436Z,29.2
2016-09-25T11:55:40.747Z,29.24
2016-09-25T11:56:50.727Z,28.82
2016-09-25T11:58:01.025Z,28.31
2016-09-25T11:59:11.012Z,28.41
2016-09-25T12:00:21.307Z,28.64
2016-09-25T12:01:31.604Z,28.88
2016-09-25T12:02:41.905Z,28.88
2016-09-25T12:03:51.899Z,28.94
2016-09-25T12:05:01.890Z,29.02
2016-09-25T12:06:12.182Z,29.02
2016-09-25T12:07:21.869Z,28.97
2016-09-25T12:08:32.156Z,29.08
2016-09-25T12:09:42.468Z,29.06
2016-09-25T12:10:52.759Z,29.11
2016-09-25T12:12:03.070Z,29.24
2016-09-25T12:13:12.752Z,29.24
2016-09-25T12:14:23.063Z,29.38
2016-09-25T12:15:33.059Z,29.47
2016-09-25T12:16:43.366Z,29.43
2016-09-25T12:17:53.360Z,29.51
2016-09-25T12:19:03.679Z,29.5
2016-09-25T12:20:13.688Z,29.52
2016-09-25T12:21:24.005Z,29.47
2016-09-25T12:22:33.687Z,29.45
2016-09-25T12:23:43.982Z,29.47
2016-09-25T12:24:53.677Z,29.43
2016-09-25T12:26:03.974Z,29.4
2016-09-25T12:27:13.976Z,29.35
2016-09-25T12:28:23.658Z,29.32
2016-09-25T12:29:33.954Z,29.36
2016-09-25T12:30:44.250Z,29.47
2016-09-25T12:31:54.253Z,29.43
2016-09-25T12:33:04.544Z,29.36
2016-09-25T12:34:14.542Z,29.43
2016-09-25T12:35:24.534Z,29.39
2016-09-25T12:36:34.834Z,29.38
2016-09-25T12:37:45.137Z,29.43
2016-09-25T12:38:55.112Z,29.43
2016-09-25T12:40:05.424Z,29.42
2016-09-25T12:41:15.727Z,29.35
2016-09-25T12:42:26.044Z,29.29
2016-09-25T12:43:36.031Z,29.23
2016-09-25T12:44:46.330Z,29.21
2016-09-25T12:45:56.629Z,29.28
2016-09-25T12:47:06.327Z,29.32
2016-09-25T12:48:16.320Z,29.33
2016-09-25T12:49:26.620Z,29.38
2016-09-25T12:50:36.305Z,29.3
2016-09-25T12:51:46.621Z,29.36
2016-09-25T12:52:56.935Z,29.32
2016-09-25T12:54:07.262Z,29.33
2016-09-25T12:55:17.258Z,29.1
2016-09-25T12:56:27.621Z,28.65
2016-09-25T12:57:37.939Z,28.16
2016-09-25T12:58:47.931Z,27.99
2016-09-25T12:59:58.223Z,27.71
2016-09-25T13:01:08.521Z,27.49
2016-09-25T13:02:18.503Z,27.42
2016-09-25T13:03:28.801Z,27.28
2016-09-25T13:04:39.090Z,27.11
2016-09-25T13:05:49.098Z,26.97
2016-09-25T13:06:59.418Z,26.91
2016-09-25T13:08:09.718Z,26.79
2016-09-25T13:09:19.715Z,26.75
2016-09-25T13:10:30.032Z,26.71
2016-09-25T13:11:40.023Z,26.68
2016-09-25T13:12:50.028Z,26.63
2016-09-25T13:14:00.013Z,26.59
2016-09-25T13:15:10.323Z,26.49
2016-09-25T13:16:20.647Z,26.5
2016-09-25T13:17:30.949Z,26.79
2016-09-25T13:18:41.249Z,27.08
2016-09-25T13:19:51.235Z,27.48
2016-09-25T13:21:01.232Z,27.74
2016-09-25T13:22:11.559Z,27.84
2016-09-25T13:23:21.560Z,27.68
2016-09-25T13:24:31.857Z,27.34
2016-09-25T13:25:41.840Z,27.13
2016-09-25T13:26:51.840Z,26.99
2016-09-25T13:28:01.841Z,26.91
2016-09-25T13:29:11.824Z,27.36
2016-09-25T13:30:21.512Z,27.53
2016-09-25T13:31:31.836Z,27.28
2016-09-25T13:32:42.158Z,26.96
2016-09-25T13:33:52.461Z,26.93
2016-09-25T13:35:02.765Z,26.9
2016-09-25T13:36:13.064Z,26.81
2016-09-25T13:37:23.375Z,26.71
2016-09-25T13:38:33.362Z,26.72
2016-09-25T13:39:43.363Z,26.97
2016-09-25T13:40:53.674Z,27.23
2016-09-25T13:42:03.984Z,27.48
2016-09-25T13:43:14.293Z,27.57
2016-09-25T13:44:24.600Z,27.75
2016-09-25T13:45:34.601Z,27.8
2016-09-25T13:46:44.898Z,27.89
2016-09-25T13:47:55.197Z,27.99
2016-09-25T13:49:05.504Z,28.01
2016-09-25T13:50:15.482Z,28.14
2016-09-25T13:51:25.788Z,28.16
2016-09-25T13:52:36.082Z,28.3
2016-09-25T13:53:46.067Z,28.2
2016-09-25T13:54:56.375Z,28.23
2016-09-25T13:56:06.367Z,28.23
2016-09-25T13:57:16.673Z,28.27
2016-09-25T13:58:26.973Z,28.36
2016-09-25T13:59:36.661Z,28.33
2016-09-25T14:00:46.961Z,28.33
2016-09-25T14:01:56.955Z,28.28
2016-09-25T14:03:07.250Z,28.26
2016-09-25T14:04:17.357Z,28.17
2016-09-25T14:05:27.671Z,28.17
2016-09-25T14:06:37.984Z,28.2
2016-09-25T14:07:48.301Z,28.14
2016-09-25T14:08:58.611Z,28.2
2016-09-25T14:10:08.608Z,28.17
2016-09-25T14:11:18.600Z,28.16
2016-09-25T14:12:28.905Z,28.17
2016-09-25T14:13:39.194Z,28.24
2016-09-25T14:14:49.490Z,28.2
2016-09-25T14:15:59.824Z,28.12
2016-09-25T14:17:10.145Z,28.16
2016-09-25T14:18:20.444Z,28.17
2016-09-25T14:19:30.470Z,28.02
2016-09-25T14:20:40.781Z,27.99
2016-09-25T14:21:51.079Z,27.93
2016-09-25T14:23:01.385Z,27.87
2016-09-25T14:24:11.681Z,27.86
2016-09-25T14:25:21.984Z,27.86
2016-09-25T14:26:31.670Z,27.87
2016-09-25T14:27:41.965Z,27.89
2016-09-25T14:28:51.954Z,27.96
2016-09-25T14:30:02.250Z,27.91
2016-09-25T14:31:12.238Z,28.01
2016-09-25T14:32:22.250Z,27.98
2016-09-25T14:33:32.551Z,28.02
2016-09-25T14:34:42.837Z,27.9
2016-09-25T14:35:53.139Z,27.91
2016-09-25T14:37:03.452Z,27.91
2016-09-25T14:38:13.143Z,27.94
2016-09-25T14:39:23.443Z,27.81
2016-09-25T14:40:33.740Z,27.89
2016-09-25T14:41:43.473Z,27.84
2016-09-25T14:42:53.155Z,27.99
2016-09-25T14:44:03.461Z,27.87
2016-09-25T14:45:13.759Z,27.86
2016-09-25T14:46:24.079Z,27.83
2016-09-25T14:47:34.395Z,27.8
2016-09-25T14:48:44.378Z,27.86
2016-09-25T14:49:54.691Z,27.76
2016-09-25T14:51:04.991Z,27.83
2016-09-25T14:52:14.999Z,27.86
2016-09-25T14:53:25.294Z,27.84
2016-09-25T14:54:35.332Z,27.9
2016-09-25T14:55:45.658Z,27.89
2016-09-25T14:56:55.952Z,27.9
2016-09-25T14:58:06.247Z,27.79
2016-09-25T14:59:16.549Z,27.75
2016-09-25T15:00:26.849Z,27.61
2016-09-25T15:01:37.156Z,27.57
2016-09-25T15:02:47.454Z,27.62
2016-09-25T15:03:57.460Z,27.43
2016-09-25T15:05:07.466Z,27.48
2016-09-25T15:06:17.439Z,27.34
2016-09-25T15:07:27.722Z,27.3
2016-09-25T15:08:38.041Z,27.21
2016-09-25T15:09:48.329Z,27.11
2016-09-25T15:10:58.331Z,27.12
2016-09-25T15:12:08.337Z,27.08
2016-09-25T15:13:18.327Z,26.97
2016-09-25T15:14:28.610Z,26.96
2016-09-25T15:15:38.917Z,26.97
2016-09-25T15:16:49.233Z,26.96
2016-09-25T15:17:59.537Z,26.94
2016-09-25T15:19:09.548Z,26.91
2016-09-25T15:20:19.860Z,26.97
2016-09-25T15:21:29.864Z,26.99
2016-09-25T15:22:40.162Z,26.87
2016-09-25T15:23:50.494Z,26.74
2016-09-25T15:25:00.814Z,26.76
2016-09-25T15:26:11.138Z,26.61
2016-09-25T15:27:21.144Z,26.61
2016-09-25T15:28:31.139Z,26.54
2016-09-25T15:29:41.450Z,26.42
2016-09-25T15:30:51.759Z,26.53
2016-09-25T15:32:02.056Z,26.45
2016-09-25T15:33:12.358Z,26.42
2016-09-25T15:34:22.679Z,26.41
2016-09-25T15:35:32.968Z,26.32
2016-09-25T15:36:43.019Z,26.44
2016-09-25T15:37:53.000Z,26.44